Terminal Aerodrome Forecast
Issued by NWS

Current Version | Previous Version | Text Only | Print | Product List | Glossary On
Versions: 1 2 3 4 5 6 7 8 9 10 11 12 13 14
000
FTUS46 KMTR 290500
TAFSJC
TAF
KSJC 290532Z 2906/3006 VRB03KT P6SM SCT180
     FM292000 33006KT P6SM FEW200
     FM300500 VRB03KT P6SM SCT200=

USA.gov is the U.S. government's official web portal to all federal, state and local government web resources and services.